sensor_id;sensor_type;location;lat;lon;timestamp;pressure;altitude;pressure_sealevel;temperature;humidity
68889;BME280;55930;47.412;8.790;2023-01-31T00:00:04;95571.56;;;0.09;100.00
68889;BME280;55930;47.412;8.790;2023-01-31T00:03:29;95572.69;;;0.12;100.00
68889;BME280;55930;47.412;8.790;2023-01-31T00:06:49;95565.59;;;0.09;100.00
68889;BME280;55930;47.412;8.790;2023-01-31T00:10:11;95561.84;;;-0.01;100.00
68889;BME280;55930;47.412;8.790;2023-01-31T00:13:31;95554.44;;;0.12;100.00
68889;BME280;55930;47.412;8.790;2023-01-31T00:16:52;95552.91;;;0.04;100.00
68889;BME280;55930;47.412;8.790;2023-01-31T00:20:13;95549.91;;;-0.02;100.00
68889;BME280;55930;47.412;8.790;2023-01-31T00:23:36;95542.50;;;0.07;100.00
68889;BME280;55930;47.412;8.790;2023-01-31T00:26:57;95542.50;;;0.11;100.00
68889;BME280;55930;47.412;8.790;2023-01-31T00:30:17;95550.66;;;0.02;100.00
68889;BME280;55930;47.412;8.790;2023-01-31T00:33:39;95543.94;;;0.01;100.00
68889;BME280;55930;47.412;8.790;2023-01-31T00:37:00;95540.25;;;0.09;100.00
68889;BME280;55930;47.412;8.790;2023-01-31T00:40:20;95537.31;;;0.14;100.00
68889;BME280;55930;47.412;8.790;2023-01-31T00:43:41;95526.84;;;0.11;100.00
68889;BME280;55930;47.412;8.790;2023-01-31T00:47:04;95530.53;;;0.03;100.00
68889;BME280;55930;47.412;8.790;2023-01-31T00:50:24;95520.50;;;0.05;100.00
68889;BME280;55930;47.412;8.790;2023-01-31T00:53:45;95531.66;;;0.02;100.00
68889;BME280;55930;47.412;8.790;2023-01-31T00:57:06;95529.44;;;0.04;100.00
68889;BME280;55930;47.412;8.790;2023-01-31T01:00:26;95523.09;;;0.08;100.00
68889;BME280;55930;47.412;8.790;2023-01-31T01:03:47;95510.81;;;0.05;100.00
68889;BME280;55930;47.412;8.790;2023-01-31T01:07:08;95508.94;;;0.02;100.00
68889;BME280;55930;47.412;8.790;2023-01-31T01:10:28;95507.09;;;0.10;100.00
68889;BME280;55930;47.412;8.790;2023-01-31T01:13:49;95502.25;;;0.08;100.00
68889;BME280;55930;47.412;8.790;2023-01-31T01:17:10;95504.16;;;0.15;100.00
68889;BME280;55930;47.412;8.790;2023-01-31T01:20:30;95504.47;;;0.10;100.00
68889;BME280;55930;47.412;8.790;2023-01-31T01:23:51;95507.50;;;0.19;100.00
68889;BME280;55930;47.412;8.790;2023-01-31T01:27:12;95515.34;;;0.26;100.00
68889;BME280;55930;47.412;8.790;2023-01-31T01:30:38;95522.41;;;0.18;100.00
68889;BME280;55930;47.412;8.790;2023-01-31T01:34:05;95510.84;;;0.12;100.00
68889;BME280;55930;47.412;8.790;2023-01-31T01:37:26;95505.97;;;0.11;100.00
68889;BME280;55930;47.412;8.790;2023-01-31T01:40:46;95516.47;;;0.25;100.00
68889;BME280;55930;47.412;8.790;2023-01-31T01:48:06;95514.22;;;0.20;100.00
68889;BME280;55930;47.412;8.790;2023-01-31T01:51:29;95515.34;;;0.22;100.00
68889;BME280;55930;47.412;8.790;2023-01-31T01:54:58;95511.66;;;0.30;100.00
68889;BME280;55930;47.412;8.790;2023-01-31T01:58:27;95508.63;;;0.25;100.00
68889;BME280;55930;47.412;8.790;2023-01-31T02:01:51;95514.59;;;0.22;100.00
68889;BME280;55930;47.412;8.790;2023-01-31T02:05:19;95513.09;;;0.24;100.00
68889;BME280;55930;47.412;8.790;2023-01-31T02:08:41;95510.91;;;0.30;100.00
68889;BME280;55930;47.412;8.790;2023-01-31T02:12:02;95515.34;;;0.26;100.00
68889;BME280;55930;47.412;8.790;2023-01-31T02:15:23;95507.88;;;0.21;100.00
68889;BME280;55930;47.412;8.790;2023-01-31T02:18:44;95513.09;;;0.24;100.00
68889;BME280;55930;47.412;8.790;2023-01-31T02:22:30;95509.78;;;0.27;100.00
68889;BME280;55930;47.412;8.790;2023-01-31T02:33:34;95509.03;;;0.23;100.00
68889;BME280;55930;47.412;8.790;2023-01-31T02:54:32;95524.28;;;0.21;100.00
68889;BME280;55930;47.412;8.790;2023-01-31T02:58:15;95525.78;;;0.22;100.00
68889;BME280;55930;47.412;8.790;2023-01-31T03:01:45;95523.16;;;0.19;100.00
68889;BME280;55930;47.412;8.790;2023-01-31T03:05:07;95509.75;;;0.20;100.00
68889;BME280;55930;47.412;8.790;2023-01-31T03:08:29;95507.53;;;0.22;100.00
68889;BME280;55930;47.412;8.790;2023-01-31T03:12:07;95512.00;;;0.22;100.00
68889;BME280;55930;47.412;8.790;2023-01-31T03:23:41;95510.13;;;0.15;100.00
68889;BME280;55930;47.412;8.790;2023-01-31T03:27:03;95523.09;;;0.08;100.00
68889;BME280;55930;47.412;8.790;2023-01-31T03:30:30;95522.03;;;0.16;100.00
68889;BME280;55930;47.412;8.790;2023-01-31T03:33:57;95528.38;;;0.15;100.00
68889;BME280;55930;47.412;8.790;2023-01-31T03:37:28;95535.03;;;0.09;100.00
68889;BME280;55930;47.412;8.790;2023-01-31T03:40:56;95538.03;;;0.08;100.00
68889;BME280;55930;47.412;8.790;2023-01-31T03:44:44;95545.47;;;0.06;100.00
68889;BME280;55930;47.412;8.790;2023-01-31T03:48:07;95545.06;;;0.04;100.00
68889;BME280;55930;47.412;8.790;2023-01-31T03:51:36;95549.19;;;0.05;100.00
68889;BME280;55930;47.412;8.790;2023-01-31T03:55:15;95545.75;;;-0.10;100.00
68889;BME280;55930;47.412;8.790;2023-01-31T03:58:42;95548.31;;;-0.21;100.00
68889;BME280;55930;47.412;8.790;2023-01-31T04:02:06;95555.38;;;-0.25;100.00
68889;BME280;55930;47.412;8.790;2023-01-31T04:05:30;95560.50;;;-0.35;100.00
68889;BME280;55930;47.412;8.790;2023-01-31T04:08:53;95556.72;;;-0.49;100.00
68889;BME280;55930;47.412;8.790;2023-01-31T04:12:14;95549.88;;;-0.67;100.00
68889;BME280;55930;47.412;8.790;2023-01-31T04:15:34;95543.16;;;-0.72;100.00
68889;BME280;55930;47.412;8.790;2023-01-31T04:18:57;95556.03;;;-0.86;100.00
68889;BME280;55930;47.412;8.790;2023-01-31T04:22:18;95554.53;;;-0.91;100.00
68889;BME280;55930;47.412;8.790;2023-01-31T04:25:38;95557.81;;;-0.97;100.00
68889;BME280;55930;47.412;8.790;2023-01-31T04:29:01;95560.41;;;-0.97;100.00
68889;BME280;55930;47.412;8.790;2023-01-31T04:32:22;95561.53;;;-0.95;100.00
68889;BME280;55930;47.412;8.790;2023-01-31T04:35:43;95563.38;;;-0.99;100.00
68889;BME280;55930;47.412;8.790;2023-01-31T04:39:03;95556.97;;;-1.08;100.00
68889;BME280;55930;47.412;8.790;2023-01-31T04:42:23;95568.28;;;-0.90;100.00
68889;BME280;55930;47.412;8.790;2023-01-31T04:45:44;95563.09;;;-0.90;100.00
68889;BME280;55930;47.412;8.790;2023-01-31T04:49:04;95564.13;;;-0.95;100.00
68889;BME280;55930;47.412;8.790;2023-01-31T04:52:25;95559.00;;;-0.88;100.00
68889;BME280;55930;47.412;8.790;2023-01-31T04:55:45;95564.19;;;-0.91;100.00
68889;BME280;55930;47.412;8.790;2023-01-31T04:59:06;95557.59;;;-0.78;100.00
68889;BME280;55930;47.412;8.790;2023-01-31T05:02:26;95567.69;;;-0.73;100.00
68889;BME280;55930;47.412;8.790;2023-01-31T05:05:48;95566.19;;;-0.74;100.00
68889;BME280;55930;47.412;8.790;2023-01-31T05:09:11;95567.25;;;-0.82;100.00
68889;BME280;55930;47.412;8.790;2023-01-31T05:12:32;95569.94;;;-0.68;100.00
68889;BME280;55930;47.412;8.790;2023-01-31T05:15:52;95568.81;;;-0.70;100.00
68889;BME280;55930;47.412;8.790;2023-01-31T05:19:16;95577.81;;;-0.61;100.00
68889;BME280;55930;47.412;8.790;2023-01-31T05:22:38;95581.97;;;-0.56;100.00
68889;BME280;55930;47.412;8.790;2023-01-31T05:25:59;95581.97;;;-0.56;100.00
68889;BME280;55930;47.412;8.790;2023-01-31T05:29:21;95598.75;;;-0.50;100.00
68889;BME280;55930;47.412;8.790;2023-01-31T05:32:42;95594.66;;;-0.48;100.00
68889;BME280;55930;47.412;8.790;2023-01-31T05:36:05;95590.28;;;-0.40;100.00
68889;BME280;55930;47.412;8.790;2023-01-31T05:39:25;95589.19;;;-0.35;100.00
68889;BME280;55930;47.412;8.790;2023-01-31T05:42:53;95585.09;;;-0.33;100.00
68889;BME280;55930;47.412;8.790;2023-01-31T05:46:19;95575.09;;;-0.27;100.00
68889;BME280;55930;47.412;8.790;2023-01-31T05:49:40;95581.81;;;-0.23;100.00
68889;BME280;55930;47.412;8.790;2023-01-31T05:53:01;95590.38;;;-0.26;100.00
68889;BME280;55930;47.412;8.790;2023-01-31T05:56:24;95594.47;;;-0.25;100.00
68889;BME280;55930;47.412;8.790;2023-01-31T05:59:45;95587.06;;;-0.19;100.00
68889;BME280;55930;47.412;8.790;2023-01-31T06:03:05;95585.91;;;-0.22;100.00
68889;BME280;55930;47.412;8.790;2023-01-31T06:06:25;95591.88;;;-0.21;100.00
68889;BME280;55930;47.412;8.790;2023-01-31T06:09:56;95595.94;;;-0.24;100.00
68889;BME280;55930;47.412;8.790;2023-01-31T06:13:17;95597.06;;;-0.25;100.00
68889;BME280;55930;47.412;8.790;2023-01-31T06:16:37;95595.59;;;-0.22;100.00
68889;BME280;55930;47.412;8.790;2023-01-31T06:20:00;95598.97;;;-0.18;100.00
68889;BME280;55930;47.412;8.790;2023-01-31T06:23:20;95594.50;;;-0.18;100.00
68889;BME280;55930;47.412;8.790;2023-01-31T06:26:43;95605.25;;;-0.26;100.00
68889;BME280;55930;47.412;8.790;2023-01-31T06:30:04;95606.41;;;-0.20;100.00
68889;BME280;55930;47.412;8.790;2023-01-31T06:33:30;95602.25;;;-0.28;100.00
68889;BME280;55930;47.412;8.790;2023-01-31T06:36:51;95606.31;;;-0.31;100.00
68889;BME280;55930;47.412;8.790;2023-01-31T06:40:13;95605.56;;;-0.31;100.00
68889;BME280;55930;47.412;8.790;2023-01-31T06:43:34;95610.44;;;-0.30;100.00
68889;BME280;55930;47.412;8.790;2023-01-31T06:46:54;95604.41;;;-0.41;100.00
68889;BME280;55930;47.412;8.790;2023-01-31T06:50:15;95611.81;;;-0.47;100.00
68889;BME280;55930;47.412;8.790;2023-01-31T06:53:35;95621.97;;;-0.34;100.00
68889;BME280;55930;47.412;8.790;2023-01-31T06:56:56;95621.28;;;-0.24;100.00
68889;BME280;55930;47.412;8.790;2023-01-31T07:00:17;95622.66;;;-0.38;100.00
68889;BME280;55930;47.412;8.790;2023-01-31T07:03:38;95618.19;;;-0.41;100.00
68889;BME280;55930;47.412;8.790;2023-01-31T07:06:59;95618.66;;;-0.28;100.00
68889;BME280;55930;47.412;8.790;2023-01-31T07:10:19;95635.75;;;-0.34;100.00
68889;BME280;55930;47.412;8.790;2023-01-31T07:13:39;95636.84;;;-0.35;100.00
68889;BME280;55930;47.412;8.790;2023-01-31T07:17:00;95633.59;;;-0.21;100.00
68889;BME280;55930;47.412;8.790;2023-01-31T07:20:20;95630.28;;;-0.18;100.00
68889;BME280;55930;47.412;8.790;2023-01-31T07:23:41;95630.72;;;-0.06;100.00
68889;BME280;55930;47.412;8.790;2023-01-31T07:27:01;95637.78;;;-0.06;100.00
68889;BME280;55930;47.412;8.790;2023-01-31T07:30:24;95632.66;;;0.05;100.00
68889;BME280;55930;47.412;8.790;2023-01-31T07:33:45;95641.63;;;0.07;100.00
68889;BME280;55930;47.412;8.790;2023-01-31T07:37:05;95641.22;;;0.05;100.00
68889;BME280;55930;47.412;8.790;2023-01-31T07:40:28;95638.72;;;0.23;100.00
68889;BME280;55930;47.412;8.790;2023-01-31T07:43:48;95645.25;;;-0.08;100.00
68889;BME280;55930;47.412;8.790;2023-01-31T07:47:09;95639.63;;;-0.07;100.00
68889;BME280;55930;47.412;8.790;2023-01-31T07:50:29;95638.63;;;0.05;100.00
68889;BME280;55930;47.412;8.790;2023-01-31T07:53:49;95629.06;;;0.30;100.00
68889;BME280;55930;47.412;8.790;2023-01-31T07:57:10;95628.75;;;0.43;100.00
68889;BME280;55930;47.412;8.790;2023-01-31T08:00:32;95630.19;;;0.29;100.00
68889;BME280;55930;47.412;8.790;2023-01-31T08:04:13;95628.66;;;0.25;100.00
68889;BME280;55930;47.412;8.790;2023-01-31T08:07:34;95635.88;;;0.53;100.00
68889;BME280;55930;47.412;8.790;2023-01-31T08:10:54;95639.63;;;0.59;100.00
68889;BME280;55930;47.412;8.790;2023-01-31T08:14:17;95629.47;;;0.36;100.00
68889;BME280;55930;47.412;8.790;2023-01-31T08:17:42;95625.50;;;0.67;100.00
68889;BME280;55930;47.412;8.790;2023-01-31T08:21:03;95633.03;;;0.97;100.00
68889;BME280;55930;47.412;8.790;2023-01-31T08:24:24;95636.44;;;1.15;100.00
68889;BME280;55930;47.412;8.790;2023-01-31T08:27:44;95632.34;;;1.18;100.00
68889;BME280;55930;47.412;8.790;2023-01-31T08:31:05;95629.38;;;1.33;100.00
68889;BME280;55930;47.412;8.790;2023-01-31T08:34:26;95636.84;;;1.35;100.00
68889;BME280;55930;47.412;8.790;2023-01-31T08:37:50;95629.00;;;1.45;100.00
68889;BME280;55930;47.412;8.790;2023-01-31T08:41:11;95626.72;;;1.12;100.00
68889;BME280;55930;47.412;8.790;2023-01-31T08:44:34;95623.75;;;2.06;100.00
68889;BME280;55930;47.412;8.790;2023-01-31T08:47:58;95622.88;;;2.58;100.00
68889;BME280;55930;47.412;8.790;2023-01-31T08:51:19;95622.72;;;3.53;100.00
68889;BME280;55930;47.412;8.790;2023-01-31T08:54:42;95612.84;;;3.19;100.00
68889;BME280;55930;47.412;8.790;2023-01-31T08:58:03;95618.06;;;3.74;98.75
68889;BME280;55930;47.412;8.790;2023-01-31T09:01:23;95623.50;;;3.98;97.87
68889;BME280;55930;47.412;8.790;2023-01-31T09:04:44;95625.16;;;4.18;93.68
68889;BME280;55930;47.412;8.790;2023-01-31T09:08:07;95623.66;;;7.31;80.45
68889;BME280;55930;47.412;8.790;2023-01-31T09:11:28;95609.63;;;7.66;77.27
68889;BME280;55930;47.412;8.790;2023-01-31T09:14:49;95620.78;;;7.74;75.15
68889;BME280;55930;47.412;8.790;2023-01-31T09:18:15;95622.97;;;6.91;77.00
68889;BME280;55930;47.412;8.790;2023-01-31T09:21:35;95627.03;;;9.25;71.01
68889;BME280;55930;47.412;8.790;2023-01-31T09:24:58;95621.94;;;7.41;73.71
68889;BME280;55930;47.412;8.790;2023-01-31T09:28:18;95624.91;;;6.08;82.13
68889;BME280;55930;47.412;8.790;2023-01-31T09:31:51;95623.19;;;5.74;81.52
68889;BME280;55930;47.412;8.790;2023-01-31T09:35:12;95628.13;;;10.12;67.05
68889;BME280;55930;47.412;8.790;2023-01-31T09:38:33;95620.09;;;8.02;71.95
68889;BME280;55930;47.412;8.790;2023-01-31T09:45:40;95607.78;;;10.65;58.35
68889;BME280;55930;47.412;8.790;2023-01-31T09:49:04;95618.03;;;11.78;54.11
68889;BME280;55930;47.412;8.790;2023-01-31T09:52:27;95613.31;;;13.75;46.64
68889;BME280;55930;47.412;8.790;2023-01-31T09:59:24;95622.72;;;6.03;72.02
68889;BME280;55930;47.412;8.790;2023-01-31T10:03:06;95635.97;;;13.80;47.16
68889;BME280;55930;47.412;8.790;2023-01-31T10:10:29;95638.28;;;14.59;44.13
68889;BME280;55930;47.412;8.790;2023-01-31T10:13:56;95640.78;;;14.77;43.44
68889;BME280;55930;47.412;8.790;2023-01-31T10:17:25;95637.28;;;9.10;58.39
68889;BME280;55930;47.412;8.790;2023-01-31T10:20:51;95643.47;;;6.64;66.67
68889;BME280;55930;47.412;8.790;2023-01-31T10:28:19;95634.75;;;6.67;66.26
68889;BME280;55930;47.412;8.790;2023-01-31T10:35:11;95622.28;;;10.52;54.22
68889;BME280;55930;47.412;8.790;2023-01-31T10:38:38;95621.81;;;8.54;57.94
68889;BME280;55930;47.412;8.790;2023-01-31T10:45:26;95613.28;;;9.30;58.00
68889;BME280;55930;47.412;8.790;2023-01-31T10:48:53;95605.69;;;8.36;60.01
68889;BME280;55930;47.412;8.790;2023-01-31T10:56:04;95596.00;;;7.36;64.73
68889;BME280;55930;47.412;8.790;2023-01-31T10:59:32;95582.44;;;5.83;67.04
68889;BME280;55930;47.412;8.790;2023-01-31T11:02:53;95587.44;;;7.64;63.36
68889;BME280;55930;47.412;8.790;2023-01-31T11:06:14;95590.34;;;6.06;67.19
68889;BME280;55930;47.412;8.790;2023-01-31T11:09:44;95581.78;;;5.75;69.62
68889;BME280;55930;47.412;8.790;2023-01-31T11:13:16;95580.16;;;4.50;76.24
68889;BME280;55930;47.412;8.790;2023-01-31T11:16:37;95565.69;;;8.75;56.44
68889;BME280;55930;47.412;8.790;2023-01-31T11:19:58;95571.81;;;8.72;60.54
68889;BME280;55930;47.412;8.790;2023-01-31T11:23:27;95572.72;;;9.07;58.55
68889;BME280;55930;47.412;8.790;2023-01-31T11:27:23;95560.06;;;8.03;61.72
68889;BME280;55930;47.412;8.790;2023-01-31T11:30:49;95547.31;;;11.80;52.50
68889;BME280;55930;47.412;8.790;2023-01-31T11:34:27;95543.28;;;10.56;53.56
68889;BME280;55930;47.412;8.790;2023-01-31T11:41:42;95536.84;;;9.66;53.86
68889;BME280;55930;47.412;8.790;2023-01-31T11:45:16;95537.75;;;8.87;58.18
68889;BME280;55930;47.412;8.790;2023-01-31T11:48:42;95543.09;;;8.17;59.50
68889;BME280;55930;47.412;8.790;2023-01-31T11:52:18;95538.59;;;8.30;61.99
68889;BME280;55930;47.412;8.790;2023-01-31T11:55:43;95532.16;;;8.02;63.00
68889;BME280;55930;47.412;8.790;2023-01-31T11:59:40;95521.78;;;7.17;65.72
68889;BME280;55930;47.412;8.790;2023-01-31T12:03:24;95512.00;;;6.30;67.35
68889;BME280;55930;47.412;8.790;2023-01-31T12:07:08;95506.97;;;6.35;69.11
68889;BME280;55930;47.412;8.790;2023-01-31T12:10:41;95508.16;;;6.14;69.87
68889;BME280;55930;47.412;8.790;2023-01-31T12:17:30;95513.53;;;5.88;69.97
68889;BME280;55930;47.412;8.790;2023-01-31T12:21:06;95510.09;;;6.30;70.71
68889;BME280;55930;47.412;8.790;2023-01-31T12:39:01;95512.13;;;14.49;42.37
68889;BME280;55930;47.412;8.790;2023-01-31T12:50:11;95504.09;;;12.49;47.18
68889;BME280;55930;47.412;8.790;2023-01-31T12:57:34;95504.66;;;13.37;43.85
68889;BME280;55930;47.412;8.790;2023-01-31T13:01:08;95475.06;;;13.59;45.98
68889;BME280;55930;47.412;8.790;2023-01-31T13:04:40;95496.00;;;13.90;44.82
68889;BME280;55930;47.412;8.790;2023-01-31T13:08:24;95496.81;;;10.20;51.74
68889;BME280;55930;47.412;8.790;2023-01-31T13:15:48;95495.19;;;11.16;46.34
68889;BME280;55930;47.412;8.790;2023-01-31T13:19:19;95482.91;;;16.05;37.38
68889;BME280;55930;47.412;8.790;2023-01-31T13:22:45;95497.63;;;12.92;43.03
68889;BME280;55930;47.412;8.790;2023-01-31T13:26:18;95480.78;;;11.53;48.72
68889;BME280;55930;47.412;8.790;2023-01-31T13:29:44;95488.91;;;9.39;52.43
68889;BME280;55930;47.412;8.790;2023-01-31T13:33:26;95485.16;;;8.64;54.71
68889;BME280;55930;47.412;8.790;2023-01-31T13:36:53;95488.03;;;8.69;55.71
68889;BME280;55930;47.412;8.790;2023-01-31T13:40:30;95494.03;;;8.44;56.48
68889;BME280;55930;47.412;8.790;2023-01-31T13:43:54;95482.09;;;7.37;57.75
68889;BME280;55930;47.412;8.790;2023-01-31T13:47:28;95488.41;;;7.72;58.57
68889;BME280;55930;47.412;8.790;2023-01-31T13:50:57;95481.03;;;8.88;55.03
68889;BME280;55930;47.412;8.790;2023-01-31T13:54:27;95485.88;;;7.97;56.63
68889;BME280;55930;47.412;8.790;2023-01-31T13:58:14;95472.13;;;7.12;61.96
68889;BME280;55930;47.412;8.790;2023-01-31T14:01:44;95481.25;;;6.03;64.03
68889;BME280;55930;47.412;8.790;2023-01-31T14:09:29;95493.72;;;5.80;64.75
68889;BME280;55930;47.412;8.790;2023-01-31T14:13:22;95497.69;;;5.45;67.65
68889;BME280;55930;47.412;8.790;2023-01-31T14:16:44;95496.25;;;4.93;70.86
68889;BME280;55930;47.412;8.790;2023-01-31T14:20:28;95509.69;;;4.72;69.87
68889;BME280;55930;47.412;8.790;2023-01-31T14:23:48;95503.41;;;4.36;71.81
68889;BME280;55930;47.412;8.790;2023-01-31T14:30:47;95510.06;;;4.13;73.29
68889;BME280;55930;47.412;8.790;2023-01-31T14:34:23;95502.50;;;3.85;75.26
68889;BME280;55930;47.412;8.790;2023-01-31T14:45:21;95494.47;;;3.65;79.39
68889;BME280;55930;47.412;8.790;2023-01-31T15:03:50;95471.47;;;3.39;82.28
68889;BME280;55930;47.412;8.790;2023-01-31T15:07:15;95471.75;;;3.48;82.65
68889;BME280;55930;47.412;8.790;2023-01-31T15:14:50;95467.91;;;3.94;80.42
68889;BME280;55930;47.412;8.790;2023-01-31T15:18:21;95451.50;;;3.86;81.80
68889;BME280;55930;47.412;8.790;2023-01-31T15:21:47;95464.25;;;3.84;81.91
68889;BME280;55930;47.412;8.790;2023-01-31T15:25:30;95450.91;;;3.71;81.91
68889;BME280;55930;47.412;8.790;2023-01-31T15:28:52;95448.56;;;3.80;81.29
68889;BME280;55930;47.412;8.790;2023-01-31T15:32:21;95446.22;;;3.56;82.31
68889;BME280;55930;47.412;8.790;2023-01-31T15:35:54;95454.13;;;3.11;85.27
68889;BME280;55930;47.412;8.790;2023-01-31T15:39:31;95458.56;;;3.18;85.66
68889;BME280;55930;47.412;8.790;2023-01-31T15:43:13;95461.38;;;3.37;85.42
68889;BME280;55930;47.412;8.790;2023-01-31T15:46:34;95474.72;;;3.09;85.83
68889;BME280;55930;47.412;8.790;2023-01-31T15:49:55;95472.50;;;3.07;86.74
68889;BME280;55930;47.412;8.790;2023-01-31T15:53:16;95485.47;;;3.22;86.45
68889;BME280;55930;47.412;8.790;2023-01-31T15:56:38;95482.59;;;3.09;86.34
68889;BME280;55930;47.412;8.790;2023-01-31T16:00:03;95483.03;;;2.97;88.22
68889;BME280;55930;47.412;8.790;2023-01-31T16:03:47;95460.78;;;2.71;88.44
68889;BME280;55930;47.412;8.790;2023-01-31T16:07:18;95468.66;;;2.71;89.79
68889;BME280;55930;47.412;8.790;2023-01-31T16:10:40;95487.38;;;2.69;90.33
68889;BME280;55930;47.412;8.790;2023-01-31T16:14:04;95491.53;;;2.60;90.81
68889;BME280;55930;47.412;8.790;2023-01-31T16:17:27;95518.09;;;2.58;91.22
68889;BME280;55930;47.412;8.790;2023-01-31T16:20:51;95504.28;;;2.54;92.30
68889;BME280;55930;47.412;8.790;2023-01-31T16:24:21;95518.16;;;2.51;92.70
68889;BME280;55930;47.412;8.790;2023-01-31T16:27:42;95523.03;;;2.46;92.18
68889;BME280;55930;47.412;8.790;2023-01-31T16:31:07;95517.09;;;2.35;93.95
68889;BME280;55930;47.412;8.790;2023-01-31T16:34:32;95504.00;;;2.35;93.26
68889;BME280;55930;47.412;8.790;2023-01-31T16:38:03;95471.91;;;2.23;93.76
68889;BME280;55930;47.412;8.790;2023-01-31T16:41:41;95496.56;;;2.26;94.54
68889;BME280;55930;47.412;8.790;2023-01-31T16:45:29;95504.84;;;2.17;94.86
68889;BME280;55930;47.412;8.790;2023-01-31T16:49:17;95482.06;;;2.11;95.61
68889;BME280;55930;47.412;8.790;2023-01-31T16:52:39;95471.59;;;2.14;95.91
68889;BME280;55930;47.412;8.790;2023-01-31T17:02:55;95492.88;;;2.16;97.02
68889;BME280;55930;47.412;8.790;2023-01-31T17:06:18;95483.19;;;2.10;97.67
68889;BME280;55930;47.412;8.790;2023-01-31T17:09:40;95486.91;;;2.09;97.70
68889;BME280;55930;47.412;8.790;2023-01-31T17:16:34;95479.50;;;1.97;99.37
68889;BME280;55930;47.412;8.790;2023-01-31T17:19:55;95480.94;;;2.08;98.54
68889;BME280;55930;47.412;8.790;2023-01-31T17:23:16;95467.50;;;2.03;98.03
68889;BME280;55930;47.412;8.790;2023-01-31T17:26:39;95470.88;;;2.07;98.25
68889;BME280;55930;47.412;8.790;2023-01-31T17:29:59;95471.63;;;2.00;98.68
68889;BME280;55930;47.412;8.790;2023-01-31T17:33:19;95491.81;;;2.03;97.57
68889;BME280;55930;47.412;8.790;2023-01-31T17:36:43;95495.53;;;2.06;96.56
68889;BME280;55930;47.412;8.790;2023-01-31T17:40:05;95509.34;;;2.10;96.51
68889;BME280;55930;47.412;8.790;2023-01-31T17:43:25;95513.50;;;2.04;97.59
68889;BME280;55930;47.412;8.790;2023-01-31T17:46:46;95528.44;;;2.00;97.66
68889;BME280;55930;47.412;8.790;2023-01-31T17:50:06;95529.59;;;1.95;97.06
68889;BME280;55930;47.412;8.790;2023-01-31T17:53:27;95527.72;;;1.99;97.38
68889;BME280;55930;47.412;8.790;2023-01-31T17:56:47;95523.22;;;1.96;97.18
68889;BME280;55930;47.412;8.790;2023-01-31T18:00:10;95536.72;;;1.91;97.19
68889;BME280;55930;47.412;8.790;2023-01-31T18:03:31;95537.03;;;2.04;96.98
68889;BME280;55930;47.412;8.790;2023-01-31T18:06:54;95538.19;;;1.88;98.60
68889;BME280;55930;47.412;8.790;2023-01-31T18:10:15;95538.56;;;1.90;98.24
68889;BME280;55930;47.412;8.790;2023-01-31T18:13:36;95540.06;;;1.91;97.49
68889;BME280;55930;47.412;8.790;2023-01-31T18:16:57;95530.72;;;1.90;97.05
68889;BME280;55930;47.412;8.790;2023-01-31T18:20:17;95527.00;;;1.88;97.95
68889;BME280;55930;47.412;8.790;2023-01-31T18:23:38;95520.28;;;1.76;98.17
68889;BME280;55930;47.412;8.790;2023-01-31T18:26:59;95533.00;;;1.74;98.19
68889;BME280;55930;47.412;8.790;2023-01-31T18:30:20;95542.31;;;1.79;97.73
68889;BME280;55930;47.412;8.790;2023-01-31T18:33:42;95541.19;;;1.76;98.78
68889;BME280;55930;47.412;8.790;2023-01-31T18:37:06;95539.34;;;1.73;97.89
68889;BME280;55930;47.412;8.790;2023-01-31T18:40:32;95545.31;;;1.81;97.35
68889;BME280;55930;47.412;8.790;2023-01-31T18:43:52;95550.94;;;1.72;98.65
68889;BME280;55930;47.412;8.790;2023-01-31T18:47:14;95553.94;;;1.74;98.10
68889;BME280;55930;47.412;8.790;2023-01-31T18:50:40;95558.03;;;1.68;98.93
68889;BME280;55930;47.412;8.790;2023-01-31T18:54:02;95559.16;;;1.74;98.22
68889;BME280;55930;47.412;8.790;2023-01-31T18:57:23;95564.75;;;1.73;98.95
68889;BME280;55930;47.412;8.790;2023-01-31T19:00:43;95557.28;;;1.75;98.77
68889;BME280;55930;47.412;8.790;2023-01-31T19:04:04;95555.78;;;1.70;98.87
68889;BME280;55930;47.412;8.790;2023-01-31T19:07:30;95566.25;;;1.77;97.95
68889;BME280;55930;47.412;8.790;2023-01-31T19:10:56;95574.84;;;1.74;98.87
68889;BME280;55930;47.412;8.790;2023-01-31T19:14:21;95581.59;;;1.75;100.00
68889;BME280;55930;47.412;8.790;2023-01-31T19:17:41;95586.81;;;1.72;99.55
68889;BME280;55930;47.412;8.790;2023-01-31T19:21:11;95580.84;;;1.75;97.84
68889;BME280;55930;47.412;8.790;2023-01-31T19:24:41;95591.28;;;1.82;98.08
68889;BME280;55930;47.412;8.790;2023-01-31T19:28:01;95579.72;;;1.72;100.00
68889;BME280;55930;47.412;8.790;2023-01-31T19:31:23;95578.56;;;1.80;97.93
68889;BME280;55930;47.412;8.790;2023-01-31T19:35:00;95573.34;;;1.80;97.32
68889;BME280;55930;47.412;8.790;2023-01-31T19:38:21;95571.84;;;1.83;97.51
68889;BME280;55930;47.412;8.790;2023-01-31T19:41:42;95578.56;;;1.77;98.65
68889;BME280;55930;47.412;8.790;2023-01-31T19:45:03;95588.28;;;1.87;96.91
68889;BME280;55930;47.412;8.790;2023-01-31T19:48:26;95593.50;;;1.87;97.31
68889;BME280;55930;47.412;8.790;2023-01-31T19:51:47;95594.28;;;1.80;98.65
68889;BME280;55930;47.412;8.790;2023-01-31T19:55:07;95590.50;;;1.85;97.26
68889;BME280;55930;47.412;8.790;2023-01-31T19:58:28;95583.78;;;1.87;97.81
68889;BME280;55930;47.412;8.790;2023-01-31T20:01:52;95567.38;;;1.83;97.30
68889;BME280;55930;47.412;8.790;2023-01-31T20:05:12;95566.22;;;1.88;97.28
68889;BME280;55930;47.412;8.790;2023-01-31T20:08:57;95556.50;;;1.85;97.59
68889;BME280;55930;47.412;8.790;2023-01-31T20:12:18;95569.25;;;1.83;97.68
68889;BME280;55930;47.412;8.790;2023-01-31T20:15:39;95556.16;;;1.79;97.56
68889;BME280;55930;47.412;8.790;2023-01-31T20:19:00;95564.38;;;1.81;97.52
68889;BME280;55930;47.412;8.790;2023-01-31T20:22:23;95565.84;;;1.89;96.53
68889;BME280;55930;47.412;8.790;2023-01-31T20:25:50;95571.09;;;1.89;97.13
68889;BME280;55930;47.412;8.790;2023-01-31T20:29:13;95561.38;;;1.90;96.81
68889;BME280;55930;47.412;8.790;2023-01-31T20:32:36;95567.69;;;1.92;96.56